French Lick, IN (47432)

5:32 PM EST on December 04, 2016 (GMT -0500)
fL | | Change Station

Elev 758 ft 38.53 °N, 86.65 °W | Updated 48 seconds ago

Light Rain
Light Rain Mist
43.0 °F
Feels Like 38 °F
N
8.0
Wind Variable Wind from SW
Gusts 21.0 mph

Today
High -- | Low -- °F
--% Chance of Precip.
Yesterday
High -- | Low -- °F
Precip. -- in
Pressure 29.92 in
Visibility 4.0 miles
Clouds Overcast 500 ft
Windchill 38 °F
Dew Point 42 °F
Humidity 96%
Rainfall 0.13 in
Snow Depth Not available.
7:48 AM 5:25 PM
Waxing Crescent, 26% visible
SPECI KHNB 042219Z AUTO 23005KT 4SM -RA BR OVC005 07/06 A2992 RMK AO2 CIG 003V010 P0002
Pressure 29.92 in
Visibility 4.0 miles
Clouds Overcast 500 ft
Windchill 38 °F
Dew Point 42 °F
Humidity 96%
Rainfall 0.13 in
Snow Depth Not available.
7:48 AM 5:25 PM
Waxing Crescent, 26% visible
SPECI KHNB 042219Z AUTO 23005KT 4SM -RA BR OVC005 07/06 A2992 RMK AO2 CIG 003V010 P0002

10-Day Weather Forecast

Almanac

Astronomy

Dec. 04, 2016 Rise Set
Actual Time
Civil Twilight
Nautical Twilight
Astronomical Twilight
Moon
Length of Visible Light
Length of Day
Tomorrow will be .
, % of the Moon is Illuminated

Today's Extremes

State Highs State Lows

Community

WunderPhotos

Upload Photos

1,955,685 photos uploaded!

WunderBlog® & News

Nearby

Air Quality

  Air Quality AQ Index Pollutant
Not available.

Snow Depth

Station Depth Elevation

Earthquake Activity

City Distance Mag. Time & Date
Minimum magnitude displayed is 2.5.

Coastal Water Temperatures

Place Temperature

Stations

Nearby Weather Stations

Station Location Temp. Windchill Dew Point Humidity Wind Precip. Elev Updated Type
                   

Watches & Warnings

There are currently no watches in effect.